createdAt,value
2023-05-10T00:02:47.519Z,59.85
2023-05-10T00:05:51.684Z,62.05
2023-05-10T00:08:55.621Z,73.40
2023-05-10T00:11:59.977Z,71.70
2023-05-10T00:15:04.802Z,71.40
2023-05-10T00:18:08.859Z,61.22
2023-05-10T00:21:12.830Z,61.08
2023-05-10T00:24:16.970Z,77.28
2023-05-10T00:27:21.001Z,69.70
2023-05-10T00:30:25.056Z,66.40
2023-05-10T00:33:27.986Z,70.97
2023-05-10T00:36:31.260Z,73.07
2023-05-10T00:39:34.911Z,78.85
2023-05-10T00:42:38.860Z,76.00
2023-05-10T00:45:43.537Z,62.88
2023-05-10T00:48:48.544Z,69.72
2023-05-10T00:51:52.385Z,72.72
2023-05-10T00:54:57.171Z,65.75
2023-05-10T00:58:01.014Z,66.17
2023-05-10T01:01:05.169Z,71.15
2023-05-10T01:04:08.837Z,68.72
2023-05-10T01:07:12.955Z,72.78
2023-05-10T01:10:17.292Z,76.63
2023-05-10T01:13:38.046Z,65.50
2023-05-10T01:16:43.829Z,70.20
2023-05-10T01:19:47.147Z,72.90
2023-05-10T01:23:21.696Z,64.57
2023-05-10T01:26:51.577Z,68.68
2023-05-10T01:30:17.291Z,69.67
2023-05-10T01:33:27.115Z,55.78
2023-05-10T01:36:56.958Z,66.45
2023-05-10T01:40:10.288Z,58.60
2023-05-10T01:43:23.620Z,63.28
2023-05-10T01:46:41.614Z,63.47
2023-05-10T01:49:55.075Z,56.40
2023-05-10T01:53:01.138Z,69.43
2023-05-10T01:56:05.395Z,64.80
2023-05-10T01:59:16.038Z,93.18
2023-05-10T02:02:22.706Z,70.40
2023-05-10T02:05:27.101Z,70.55
2023-05-10T02:08:31.681Z,75.32
2023-05-10T02:11:35.879Z,69.88
2023-05-10T02:14:41.609Z,66.90
2023-05-10T02:17:48.579Z,57.47
2023-05-10T02:20:55.504Z,59.17
2023-05-10T02:24:00.954Z,57.38
2023-05-10T02:27:06.555Z,35.88
2023-05-10T02:30:13.780Z,43.42
2023-05-10T02:33:16.994Z,49.73
2023-05-10T02:36:23.094Z,44.33
2023-05-10T02:39:30.049Z,43.92
2023-05-10T02:42:38.136Z,36.83
2023-05-10T02:45:42.129Z,38.92
2023-05-10T02:48:46.319Z,43.73
2023-05-10T02:51:55.793Z,42.70
2023-05-10T02:55:05.108Z,40.90
2023-05-10T02:58:08.547Z,46.97
2023-05-10T03:01:12.601Z,43.25
2023-05-10T03:04:16.738Z,48.77
2023-05-10T03:07:23.151Z,45.42
2023-05-10T03:10:31.100Z,45.08
2023-05-10T03:13:40.487Z,40.20
2023-05-10T03:16:58.365Z,38.00
2023-05-10T03:20:13.626Z,41.53
2023-05-10T03:23:20.141Z,33.75
2023-05-10T03:26:28.490Z,34.03
2023-05-10T03:29:48.032Z,34.78
2023-05-10T03:32:52.296Z,30.90
2023-05-10T03:35:55.889Z,35.10
2023-05-10T03:38:59.917Z,39.97
2023-05-10T03:42:03.934Z,38.60
2023-05-10T03:45:09.180Z,37.22
2023-05-10T03:48:15.170Z,36.38
2023-05-10T03:51:19.706Z,34.80
2023-05-10T03:54:23.384Z,32.63
2023-05-10T03:57:27.487Z,31.52
2023-05-10T04:00:31.774Z,38.17
2023-05-10T04:03:38.463Z,31.40
2023-05-10T04:06:42.346Z,37.07
2023-05-10T04:09:46.548Z,26.67
2023-05-10T04:12:50.074Z,30.15
2023-05-10T04:15:53.996Z,22.95
2023-05-10T04:18:57.988Z,32.90
2023-05-10T04:22:02.103Z,40.47
2023-05-10T04:25:06.345Z,35.75
2023-05-10T04:28:10.565Z,30.80
2023-05-10T04:31:14.381Z,22.88
2023-05-10T04:34:18.278Z,21.92
2023-05-10T04:37:22.972Z,18.97
2023-05-10T04:40:27.828Z,19.13
2023-05-10T04:43:31.488Z,22.02
2023-05-10T04:46:35.492Z,22.88
2023-05-10T04:49:39.242Z,17.15
2023-05-10T04:52:43.240Z,18.23
2023-05-10T04:55:48.315Z,21.50
2023-05-10T04:58:52.339Z,21.83
2023-05-10T05:01:56.007Z,16.92
2023-05-10T05:04:59.880Z,21.27
2023-05-10T05:08:03.583Z,19.80
2023-05-10T05:11:07.492Z,17.85
2023-05-10T05:14:11.084Z,13.50
2023-05-10T05:17:15.102Z,12.23
2023-05-10T05:20:20.502Z,12.30
2023-05-10T05:23:26.675Z,11.63
2023-05-10T05:26:30.222Z,13.48
2023-05-10T05:29:34.451Z,10.85
2023-05-10T05:32:38.064Z,9.98
2023-05-10T05:35:42.012Z,12.23
2023-05-10T05:38:46.635Z,9.13
2023-05-10T05:41:50.409Z,12.52
2023-05-10T05:44:54.017Z,10.85
2023-05-10T05:47:58.472Z,23.98
2023-05-10T05:51:04.619Z,9.20
2023-05-10T05:54:10.174Z,10.90
2023-05-10T05:57:13.265Z,23.05
2023-05-10T06:00:17.239Z,15.00
2023-05-10T06:03:22.444Z,16.92
2023-05-10T06:06:26.040Z,23.63
2023-05-10T06:09:29.025Z,13.83
2023-05-10T06:12:33.030Z,29.33
2023-05-10T06:15:36.641Z,13.63
2023-05-10T06:18:40.687Z,19.60
2023-05-10T06:21:44.313Z,15.45
2023-05-10T06:24:48.302Z,15.97
2023-05-10T06:27:53.898Z,14.73
2023-05-10T06:30:57.927Z,18.95
2023-05-10T06:34:01.606Z,18.60
2023-05-10T06:37:05.663Z,13.38
2023-05-10T06:40:09.769Z,14.10
2023-05-10T06:43:14.162Z,11.95
2023-05-10T06:46:17.917Z,17.25
2023-05-10T06:49:21.588Z,18.70
2023-05-10T06:52:25.225Z,11.00
2023-05-10T06:55:28.883Z,24.10
2023-05-10T06:58:34.171Z,19.23
2023-05-10T07:01:38.226Z,18.45
2023-05-10T07:04:41.934Z,16.73
2023-05-10T07:07:46.049Z,18.00
2023-05-10T07:10:49.925Z,19.03
2023-05-10T07:13:53.833Z,15.43
2023-05-10T07:16:57.455Z,17.23
2023-05-10T07:20:02.250Z,13.80
2023-05-10T07:23:05.817Z,13.80
2023-05-10T07:26:10.015Z,16.70
2023-05-10T07:29:13.758Z,25.58
2023-05-10T07:32:17.599Z,16.00
2023-05-10T07:35:21.351Z,12.95
2023-05-10T07:38:25.328Z,24.83
2023-05-10T07:41:28.853Z,11.47
2023-05-10T07:44:32.980Z,17.45
2023-05-10T07:47:36.632Z,17.50
2023-05-10T07:50:40.583Z,20.95
2023-05-10T07:53:44.149Z,18.20
2023-05-10T07:56:49.144Z,16.17
2023-05-10T07:59:52.775Z,13.05
2023-05-10T08:02:56.756Z,13.98
2023-05-10T08:06:01.166Z,14.93
2023-05-10T08:09:05.078Z,21.30
2023-05-10T08:12:08.779Z,13.17
2023-05-10T08:15:12.847Z,25.92
2023-05-10T08:18:16.604Z,17.67
2023-05-10T08:21:22.901Z,23.60
2023-05-10T08:24:27.874Z,22.05
2023-05-10T08:27:31.148Z,12.50
2023-05-10T08:30:34.297Z,13.20
2023-05-10T08:33:37.956Z,14.43
2023-05-10T08:36:41.690Z,16.92
2023-05-10T08:39:49.641Z,14.55
2023-05-10T08:43:08.791Z,17.80
2023-05-10T08:46:13.007Z,13.32
2023-05-10T08:49:22.424Z,14.45
2023-05-10T08:52:28.872Z,11.85
2023-05-10T08:55:32.066Z,15.68
2023-05-10T08:58:36.004Z,13.63
2023-05-10T09:01:39.341Z,17.48
2023-05-10T09:04:44.200Z,16.42
2023-05-10T09:07:47.894Z,17.20
2023-05-10T09:10:51.312Z,18.23
2023-05-10T09:13:55.010Z,23.83
2023-05-10T09:16:58.974Z,16.50
2023-05-10T09:20:04.174Z,24.98
2023-05-10T09:23:08.640Z,14.90
2023-05-10T09:26:12.332Z,23.33
2023-05-10T09:29:17.675Z,17.90
2023-05-10T09:32:21.636Z,16.10
2023-05-10T09:35:29.699Z,17.90
2023-05-10T09:38:52.362Z,16.13
2023-05-10T09:41:55.310Z,23.83
2023-05-10T09:45:06.603Z,54.73
2023-05-10T09:48:10.516Z,29.52
2023-05-10T09:51:25.063Z,23.80
2023-05-10T09:54:29.098Z,112.70
2023-05-10T09:57:34.642Z,20.40
2023-05-10T10:00:44.162Z,13.43
2023-05-10T10:03:47.888Z,21.73
2023-05-10T10:07:02.393Z,18.08
2023-05-10T10:10:06.419Z,23.17
2023-05-10T10:13:09.969Z,14.07
2023-05-10T10:16:13.081Z,28.27
2023-05-10T10:19:17.227Z,14.85
2023-05-10T10:22:20.337Z,10.13
2023-05-10T10:25:24.506Z,14.50
2023-05-10T10:28:34.094Z,16.63
2023-05-10T10:31:49.588Z,19.57
2023-05-10T10:34:53.773Z,19.83
2023-05-10T10:37:58.541Z,16.73
2023-05-10T10:41:12.408Z,19.65
2023-05-10T10:44:26.737Z,10.32
2023-05-10T10:47:34.576Z,16.70
2023-05-10T10:50:47.643Z,17.35
2023-05-10T10:53:51.346Z,20.90
2023-05-10T10:57:15.435Z,10.70
2023-05-10T11:00:26.481Z,16.95
2023-05-10T11:03:30.864Z,15.13
2023-05-10T11:06:34.973Z,14.88
2023-05-10T11:09:42.678Z,14.30
2023-05-10T11:13:09.573Z,12.18
2023-05-10T11:16:14.726Z,11.55
2023-05-10T11:19:19.895Z,21.97
2023-05-10T11:22:27.647Z,13.20
2023-05-10T11:25:30.725Z,13.95
2023-05-10T11:28:34.852Z,13.73
2023-05-10T11:31:45.380Z,19.73
2023-05-10T11:34:50.266Z,16.90
2023-05-10T11:37:53.799Z,17.50
2023-05-10T11:40:57.758Z,16.42
2023-05-10T11:44:01.453Z,17.98
2023-05-10T11:47:05.893Z,24.40
2023-05-10T11:50:10.023Z,17.57
2023-05-10T11:53:15.580Z,13.18
2023-05-10T11:56:18.620Z,12.77
2023-05-10T11:59:21.916Z,12.32
2023-05-10T12:02:26.198Z,17.90
2023-05-10T12:05:30.199Z,17.27
2023-05-10T12:08:33.149Z,18.23
2023-05-10T12:11:44.196Z,10.60
2023-05-10T12:14:52.732Z,17.10
2023-05-10T12:17:56.308Z,12.23
2023-05-10T12:21:08.118Z,17.53
2023-05-10T12:24:12.058Z,13.48
2023-05-10T12:30:37.476Z,22.88
2023-05-10T12:33:45.491Z,13.73
2023-05-10T12:36:53.925Z,22.03
2023-05-10T12:39:57.569Z,29.55
2023-05-10T12:43:01.719Z,20.70
2023-05-10T12:46:16.435Z,28.83
2023-05-10T12:49:21.510Z,21.25
2023-05-10T12:52:24.806Z,28.30
2023-05-10T12:55:28.808Z,17.95
2023-05-10T12:58:36.120Z,20.45
2023-05-10T13:01:40.342Z,20.80
2023-05-10T13:04:44.246Z,28.02
2023-05-10T13:07:48.336Z,40.60
2023-05-10T13:10:52.069Z,36.20
2023-05-10T13:13:56.265Z,30.42
2023-05-10T13:17:00.281Z,29.40
2023-05-10T13:20:05.285Z,27.95
2023-05-10T13:23:08.186Z,34.77
2023-05-10T13:26:11.168Z,33.33
2023-05-10T13:29:14.818Z,16.10
2023-05-10T13:32:18.810Z,19.05
2023-05-10T13:35:22.767Z,24.48
2023-05-10T13:38:26.836Z,18.37
2023-05-10T13:41:30.600Z,14.43
2023-05-10T13:44:35.305Z,11.98
2023-05-10T13:47:38.299Z,19.17
2023-05-10T13:50:42.176Z,14.32
2023-05-10T13:53:45.771Z,23.43
2023-05-10T13:56:50.435Z,19.13
2023-05-10T13:59:55.831Z,27.17
2023-05-10T14:03:01.212Z,15.85
2023-05-10T14:06:04.944Z,24.42
2023-05-10T14:09:09.375Z,21.80
2023-05-10T14:12:13.059Z,26.33
2023-05-10T14:15:17.094Z,16.75
2023-05-10T14:18:21.244Z,14.88
2023-05-10T14:21:25.293Z,19.60
2023-05-10T14:24:28.233Z,15.07
2023-05-10T14:27:31.921Z,24.13
2023-05-10T14:30:38.200Z,23.05
2023-05-10T14:33:41.518Z,25.77
2023-05-10T14:36:45.241Z,16.67
2023-05-10T14:39:48.630Z,9.83
2023-05-10T14:42:53.910Z,8.25
2023-05-10T14:45:58.010Z,9.73
2023-05-10T14:49:02.127Z,7.18
2023-05-10T14:52:05.705Z,11.13
2023-05-10T14:55:10.488Z,6.33
2023-05-10T14:58:13.543Z,11.98
2023-05-10T15:01:17.672Z,14.82
2023-05-10T15:04:22.797Z,9.65
2023-05-10T15:07:27.095Z,8.60
2023-05-10T15:10:30.573Z,11.80
2023-05-10T15:13:35.664Z,9.30
2023-05-10T15:16:39.268Z,9.30
2023-05-10T15:19:43.433Z,9.07
2023-05-10T15:22:46.412Z,9.43
2023-05-10T15:25:51.762Z,12.73
2023-05-10T15:28:55.802Z,8.57
2023-05-10T15:31:59.695Z,12.90
2023-05-10T15:35:04.154Z,10.38
2023-05-10T15:38:09.059Z,6.72
2023-05-10T15:41:11.899Z,8.47
2023-05-10T15:44:16.483Z,8.52
2023-05-10T15:47:20.142Z,8.63
2023-05-10T15:50:23.604Z,8.13
2023-05-10T15:53:26.718Z,8.77
2023-05-10T15:56:31.625Z,10.90
2023-05-10T15:59:36.347Z,7.50
2023-05-10T16:02:41.920Z,21.40
2023-05-10T16:05:45.564Z,10.30
2023-05-10T16:08:49.000Z,8.45
2023-05-10T16:11:52.658Z,5.40
2023-05-10T16:14:57.032Z,6.57
2023-05-10T16:18:00.845Z,6.10
2023-05-10T16:21:04.930Z,9.45
2023-05-10T16:24:08.741Z,8.40
2023-05-10T16:27:14.156Z,6.83
2023-05-10T16:30:17.793Z,10.23
2023-05-10T16:33:21.767Z,7.90
2023-05-10T16:36:25.532Z,12.63
2023-05-10T16:39:29.462Z,9.38
2023-05-10T16:42:33.095Z,10.27
2023-05-10T16:45:37.449Z,8.52
2023-05-10T16:48:41.161Z,6.43
2023-05-10T16:51:45.408Z,7.50
2023-05-10T16:54:48.412Z,9.52
2023-05-10T16:57:52.709Z,9.77
2023-05-10T17:00:55.585Z,9.75
2023-05-10T17:03:59.579Z,9.93
2023-05-10T17:07:02.499Z,10.43
2023-05-10T17:10:06.024Z,9.85
2023-05-10T17:13:10.365Z,9.23
2023-05-10T17:16:14.309Z,9.88
2023-05-10T17:19:18.236Z,8.20
2023-05-10T17:22:22.055Z,8.65
2023-05-10T17:25:25.269Z,10.00
2023-05-10T17:28:28.307Z,7.73
2023-05-10T17:31:33.468Z,10.30
2023-05-10T17:35:01.395Z,7.43
2023-05-10T17:38:05.386Z,7.45
2023-05-10T17:41:08.982Z,9.98
2023-05-10T17:44:13.894Z,9.33
2023-05-10T17:47:17.207Z,11.60
2023-05-10T17:50:20.318Z,10.02
2023-05-10T17:53:23.675Z,8.13
2023-05-10T17:56:27.890Z,9.98
2023-05-10T17:59:31.796Z,7.07
2023-05-10T18:02:37.571Z,8.68
2023-05-10T18:05:41.574Z,10.68
2023-05-10T18:08:45.935Z,11.63
2023-05-10T18:11:48.903Z,9.38
2023-05-10T18:14:52.639Z,10.90
2023-05-10T18:17:57.168Z,11.45
2023-05-10T18:21:01.745Z,12.23
2023-05-10T18:24:06.348Z,12.13
2023-05-10T18:27:12.190Z,8.05
2023-05-10T18:30:15.840Z,12.97
2023-05-10T18:33:19.931Z,11.60
2023-05-10T18:36:24.368Z,12.98
2023-05-10T18:39:27.892Z,7.65
2023-05-10T18:42:32.133Z,6.97
2023-05-10T18:45:35.473Z,6.43
2023-05-10T18:48:39.631Z,8.73
2023-05-10T18:51:42.448Z,11.07
2023-05-10T18:54:45.898Z,6.18
2023-05-10T18:57:48.872Z,11.05
2023-05-10T19:00:53.662Z,9.03
2023-05-10T19:03:57.237Z,11.63
2023-05-10T19:07:02.584Z,10.63
2023-05-10T19:10:06.311Z,9.35
2023-05-10T19:13:09.976Z,10.80
2023-05-10T19:16:21.806Z,7.93
2023-05-10T19:19:26.067Z,8.65
2023-05-10T19:25:37.600Z,10.60
2023-05-10T19:28:41.644Z,8.55
2023-05-10T19:31:45.492Z,9.57
2023-05-10T19:34:51.165Z,7.22
2023-05-10T19:37:54.756Z,6.35
2023-05-10T19:41:00.150Z,5.70
2023-05-10T19:44:04.170Z,9.60
2023-05-10T19:47:09.913Z,7.73
2023-05-10T19:50:14.308Z,9.88
2023-05-10T19:53:18.422Z,12.38
2023-05-10T19:56:22.220Z,9.80
2023-05-10T19:59:25.278Z,13.65
2023-05-10T20:02:28.280Z,9.80
2023-05-10T20:05:31.288Z,7.70
2023-05-10T20:08:34.805Z,16.45
2023-05-10T20:11:38.421Z,9.95
2023-05-10T20:14:41.789Z,9.52
2023-05-10T20:17:45.701Z,9.50
2023-05-10T20:20:48.880Z,8.18
2023-05-10T20:23:52.493Z,8.13
2023-05-10T20:26:57.179Z,10.32
2023-05-10T20:30:00.813Z,12.43
2023-05-10T20:33:05.152Z,11.27
2023-05-10T20:36:10.127Z,9.65
2023-05-10T20:39:14.098Z,9.75
2023-05-10T20:42:18.048Z,16.10
2023-05-10T20:45:22.177Z,13.50
2023-05-10T20:48:25.538Z,12.73
2023-05-10T20:51:31.317Z,8.07
2023-05-10T20:54:34.258Z,8.32
2023-05-10T20:57:37.640Z,11.68
2023-05-10T21:00:41.338Z,11.88
2023-05-10T21:03:44.985Z,13.83
2023-05-10T21:06:48.279Z,12.93
2023-05-10T21:09:52.466Z,9.55
2023-05-10T21:12:56.394Z,13.57
2023-05-10T21:15:59.856Z,11.32
2023-05-10T21:19:03.235Z,12.37
2023-05-10T21:22:07.382Z,9.73
2023-05-10T21:25:10.716Z,15.07
2023-05-10T21:28:14.157Z,15.13
2023-05-10T21:31:17.561Z,18.00
2023-05-10T21:34:22.202Z,15.97
2023-05-10T21:37:27.372Z,17.55
2023-05-10T21:40:31.366Z,16.27
2023-05-10T21:43:35.212Z,16.90
2023-05-10T21:46:39.176Z,18.10
2023-05-10T21:49:42.694Z,15.17
2023-05-10T21:52:46.605Z,18.58
2023-05-10T21:55:50.230Z,16.92
2023-05-10T21:58:54.262Z,13.63
2023-05-10T22:01:57.220Z,12.90
2023-05-10T22:05:00.517Z,12.30
2023-05-10T22:08:03.488Z,13.50
2023-05-10T22:11:06.803Z,13.45
2023-05-10T22:14:09.707Z,13.40
2023-05-10T22:17:14.991Z,14.90
2023-05-10T22:20:19.437Z,11.47
2023-05-10T22:23:23.619Z,12.85
2023-05-10T22:26:27.803Z,13.98
2023-05-10T22:29:31.415Z,11.88
2023-05-10T22:32:35.192Z,11.82
2023-05-10T22:35:45.081Z,10.93
2023-05-10T22:38:48.860Z,10.43
2023-05-10T22:41:52.479Z,8.75
2023-05-10T22:44:55.699Z,9.82
2023-05-10T22:48:00.598Z,8.00
2023-05-10T22:51:04.269Z,8.00
2023-05-10T22:54:07.880Z,10.05
2023-05-10T22:57:10.805Z,10.23
2023-05-10T23:00:15.529Z,8.15
2023-05-10T23:03:18.836Z,11.13
2023-05-10T23:06:22.072Z,12.43
2023-05-10T23:09:25.095Z,9.20
2023-05-10T23:12:28.275Z,10.05
2023-05-10T23:15:33.615Z,17.30
2023-05-10T23:18:37.560Z,15.02
2023-05-10T23:21:41.381Z,18.83
2023-05-10T23:24:45.107Z,12.48
2023-05-10T23:27:48.013Z,11.10
2023-05-10T23:30:59.572Z,11.48
2023-05-10T23:34:03.487Z,10.18
2023-05-10T23:37:07.409Z,8.97
2023-05-10T23:40:11.536Z,7.88
2023-05-10T23:43:17.004Z,7.65
2023-05-10T23:46:19.988Z,10.43
2023-05-10T23:49:23.105Z,7.60
2023-05-10T23:52:26.166Z,8.30
2023-05-10T23:55:29.103Z,5.88
2023-05-10T23:58:32.723Z,13.48
